sensor_id;sensor_type;location;lat;lon;timestamp;temperature;humidity
31113;DHT22;17763;48.730;9.136;2023-03-19T00:02:10;11.20;79.70
31113;DHT22;17763;48.730;9.136;2023-03-19T00:04:36;11.20;79.60
31113;DHT22;17763;48.730;9.136;2023-03-19T00:07:02;11.20;80.00
31113;DHT22;17763;48.730;9.136;2023-03-19T00:09:27;11.20;80.60
31113;DHT22;17763;48.730;9.136;2023-03-19T00:11:53;11.20;80.40
31113;DHT22;17763;48.730;9.136;2023-03-19T00:14:19;11.20;80.00
31113;DHT22;17763;48.730;9.136;2023-03-19T00:16:45;11.20;80.10
31113;DHT22;17763;48.730;9.136;2023-03-19T00:19:13;11.20;80.30
31113;DHT22;17763;48.730;9.136;2023-03-19T00:21:39;11.20;80.60
31113;DHT22;17763;48.730;9.136;2023-03-19T00:24:05;11.20;80.40
31113;DHT22;17763;48.730;9.136;2023-03-19T00:26:32;11.10;80.40
31113;DHT22;17763;48.730;9.136;2023-03-19T00:28:58;11.10;80.40
31113;DHT22;17763;48.730;9.136;2023-03-19T00:31:26;11.10;80.30
31113;DHT22;17763;48.730;9.136;2023-03-19T00:33:52;11.10;80.60
31113;DHT22;17763;48.730;9.136;2023-03-19T00:36:19;11.10;80.60
31113;DHT22;17763;48.730;9.136;2023-03-19T00:38:45;11.10;80.80
31113;DHT22;17763;48.730;9.136;2023-03-19T00:41:11;11.10;80.80
31113;DHT22;17763;48.730;9.136;2023-03-19T00:43:37;11.10;81.70
31113;DHT22;17763;48.730;9.136;2023-03-19T00:46:04;11.10;81.80
31113;DHT22;17763;48.730;9.136;2023-03-19T00:48:30;11.10;81.90
31113;DHT22;17763;48.730;9.136;2023-03-19T00:51:02;11.10;82.30
31113;DHT22;17763;48.730;9.136;2023-03-19T00:53:30;11.10;82.10
31113;DHT22;17763;48.730;9.136;2023-03-19T00:55:58;11.10;82.20
31113;DHT22;17763;48.730;9.136;2023-03-19T00:58:26;11.10;83.00
31113;DHT22;17763;48.730;9.136;2023-03-19T01:00:52;11.10;83.40
31113;DHT22;17763;48.730;9.136;2023-03-19T01:03:21;11.10;83.90
31113;DHT22;17763;48.730;9.136;2023-03-19T01:05:48;11.10;84.40
31113;DHT22;17763;48.730;9.136;2023-03-19T01:08:17;11.20;84.10
31113;DHT22;17763;48.730;9.136;2023-03-19T01:10:44;11.10;84.40
31113;DHT22;17763;48.730;9.136;2023-03-19T01:13:11;11.10;84.70
31113;DHT22;17763;48.730;9.136;2023-03-19T01:15:40;11.10;84.60
31113;DHT22;17763;48.730;9.136;2023-03-19T01:18:06;11.10;84.80
31113;DHT22;17763;48.730;9.136;2023-03-19T01:20:35;11.10;85.00
31113;DHT22;17763;48.730;9.136;2023-03-19T01:23:02;11.10;85.30
31113;DHT22;17763;48.730;9.136;2023-03-19T01:25:31;11.10;85.50
31113;DHT22;17763;48.730;9.136;2023-03-19T01:27:57;11.10;86.00
31113;DHT22;17763;48.730;9.136;2023-03-19T01:30:23;11.10;85.50
31113;DHT22;17763;48.730;9.136;2023-03-19T01:32:49;11.10;85.20
31113;DHT22;17763;48.730;9.136;2023-03-19T01:35:14;11.10;84.80
31113;DHT22;17763;48.730;9.136;2023-03-19T01:37:40;11.10;84.40
31113;DHT22;17763;48.730;9.136;2023-03-19T01:40:07;11.10;83.10
31113;DHT22;17763;48.730;9.136;2023-03-19T01:42:33;11.10;80.60
31113;DHT22;17763;48.730;9.136;2023-03-19T01:45:01;11.20;79.80
31113;DHT22;17763;48.730;9.136;2023-03-19T01:49:54;11.30;79.30
31113;DHT22;17763;48.730;9.136;2023-03-19T01:52:22;11.20;79.80
31113;DHT22;17763;48.730;9.136;2023-03-19T01:54:54;11.20;80.20
31113;DHT22;17763;48.730;9.136;2023-03-19T01:57:21;11.20;81.00
31113;DHT22;17763;48.730;9.136;2023-03-19T01:59:51;11.10;81.40
31113;DHT22;17763;48.730;9.136;2023-03-19T02:02:24;11.10;82.70
31113;DHT22;17763;48.730;9.136;2023-03-19T02:07:36;11.00;86.20
31113;DHT22;17763;48.730;9.136;2023-03-19T02:10:05;10.90;90.70
31113;DHT22;17763;48.730;9.136;2023-03-19T02:12:32;10.80;93.50
31113;DHT22;17763;48.730;9.136;2023-03-19T02:14:57;10.70;99.40
31113;DHT22;17763;48.730;9.136;2023-03-19T02:17:23;10.60;99.90
31113;DHT22;17763;48.730;9.136;2023-03-19T02:22:30;10.40;99.90
31113;DHT22;17763;48.730;9.136;2023-03-19T02:25:39;10.40;99.90
31113;DHT22;17763;48.730;9.136;2023-03-19T02:28:07;10.40;99.90
31113;DHT22;17763;48.730;9.136;2023-03-19T02:30:34;10.40;99.90
31113;DHT22;17763;48.730;9.136;2023-03-19T02:33:00;10.40;99.90
31113;DHT22;17763;48.730;9.136;2023-03-19T02:35:28;10.30;99.90
31113;DHT22;17763;48.730;9.136;2023-03-19T02:37:58;10.30;99.90
31113;DHT22;17763;48.730;9.136;2023-03-19T02:40:28;10.20;99.90
31113;DHT22;17763;48.730;9.136;2023-03-19T02:42:55;10.20;99.90
31113;DHT22;17763;48.730;9.136;2023-03-19T02:45:21;10.20;99.90
31113;DHT22;17763;48.730;9.136;2023-03-19T02:47:50;10.40;99.90
31113;DHT22;17763;48.730;9.136;2023-03-19T02:50:15;10.20;99.90
31113;DHT22;17763;48.730;9.136;2023-03-19T02:52:41;10.20;99.90
31113;DHT22;17763;48.730;9.136;2023-03-19T02:55:07;10.20;99.90
31113;DHT22;17763;48.730;9.136;2023-03-19T02:57:32;10.20;99.90
31113;DHT22;17763;48.730;9.136;2023-03-19T02:59:58;10.20;99.90
31113;DHT22;17763;48.730;9.136;2023-03-19T03:02:24;10.10;99.90
31113;DHT22;17763;48.730;9.136;2023-03-19T03:04:49;10.10;99.90
31113;DHT22;17763;48.730;9.136;2023-03-19T03:07:15;10.00;99.90
31113;DHT22;17763;48.730;9.136;2023-03-19T03:09:41;10.10;99.90
31113;DHT22;17763;48.730;9.136;2023-03-19T03:12:07;10.20;99.90
31113;DHT22;17763;48.730;9.136;2023-03-19T03:14:33;10.20;99.90
31113;DHT22;17763;48.730;9.136;2023-03-19T03:16:59;10.20;99.90
31113;DHT22;17763;48.730;9.136;2023-03-19T03:19:25;10.30;99.90
31113;DHT22;17763;48.730;9.136;2023-03-19T03:21:51;10.20;99.90
31113;DHT22;17763;48.730;9.136;2023-03-19T03:24:17;10.20;99.90
31113;DHT22;17763;48.730;9.136;2023-03-19T03:26:43;10.20;99.90
31113;DHT22;17763;48.730;9.136;2023-03-19T03:29:11;10.20;99.90
31113;DHT22;17763;48.730;9.136;2023-03-19T03:31:37;10.20;99.90
31113;DHT22;17763;48.730;9.136;2023-03-19T03:34:02;10.10;99.90
31113;DHT22;17763;48.730;9.136;2023-03-19T03:36:28;10.10;99.90
31113;DHT22;17763;48.730;9.136;2023-03-19T03:38:54;10.10;99.90
31113;DHT22;17763;48.730;9.136;2023-03-19T03:41:20;10.00;99.90
31113;DHT22;17763;48.730;9.136;2023-03-19T03:43:46;10.00;99.90
31113;DHT22;17763;48.730;9.136;2023-03-19T03:46:12;10.00;99.90
31113;DHT22;17763;48.730;9.136;2023-03-19T03:48:40;10.00;99.90
31113;DHT22;17763;48.730;9.136;2023-03-19T03:51:07;10.00;99.90
31113;DHT22;17763;48.730;9.136;2023-03-19T03:53:32;10.00;99.90
31113;DHT22;17763;48.730;9.136;2023-03-19T03:55:58;9.90;99.90
31113;DHT22;17763;48.730;9.136;2023-03-19T03:58:23;9.90;99.90
31113;DHT22;17763;48.730;9.136;2023-03-19T04:00:50;9.90;99.90
31113;DHT22;17763;48.730;9.136;2023-03-19T04:03:15;9.80;99.90
31113;DHT22;17763;48.730;9.136;2023-03-19T04:05:43;9.80;99.90
31113;DHT22;17763;48.730;9.136;2023-03-19T04:08:09;9.80;99.90
31113;DHT22;17763;48.730;9.136;2023-03-19T04:10:37;9.70;99.90
31113;DHT22;17763;48.730;9.136;2023-03-19T04:13:03;9.70;99.90
31113;DHT22;17763;48.730;9.136;2023-03-19T04:15:29;9.70;99.90
31113;DHT22;17763;48.730;9.136;2023-03-19T04:17:54;9.70;99.90
31113;DHT22;17763;48.730;9.136;2023-03-19T04:20:20;9.70;99.90
31113;DHT22;17763;48.730;9.136;2023-03-19T04:22:48;9.70;99.90
31113;DHT22;17763;48.730;9.136;2023-03-19T04:25:13;9.70;99.90
31113;DHT22;17763;48.730;9.136;2023-03-19T04:27:43;9.70;99.90
31113;DHT22;17763;48.730;9.136;2023-03-19T04:30:09;9.70;99.90
31113;DHT22;17763;48.730;9.136;2023-03-19T04:32:36;9.70;99.90
31113;DHT22;17763;48.730;9.136;2023-03-19T04:35:01;9.70;99.90
31113;DHT22;17763;48.730;9.136;2023-03-19T04:37:28;9.80;99.90
31113;DHT22;17763;48.730;9.136;2023-03-19T04:39:53;9.80;99.90
31113;DHT22;17763;48.730;9.136;2023-03-19T04:42:19;9.80;99.90
31113;DHT22;17763;48.730;9.136;2023-03-19T04:44:45;9.80;99.90
31113;DHT22;17763;48.730;9.136;2023-03-19T04:47:12;9.80;99.90
31113;DHT22;17763;48.730;9.136;2023-03-19T04:49:38;9.80;99.90
31113;DHT22;17763;48.730;9.136;2023-03-19T04:52:04;9.80;99.90
31113;DHT22;17763;48.730;9.136;2023-03-19T04:54:30;9.80;99.90
31113;DHT22;17763;48.730;9.136;2023-03-19T04:56:56;9.80;99.90
31113;DHT22;17763;48.730;9.136;2023-03-19T04:59:22;9.80;99.90
31113;DHT22;17763;48.730;9.136;2023-03-19T05:01:47;9.80;99.90
31113;DHT22;17763;48.730;9.136;2023-03-19T05:04:13;9.80;99.90
31113;DHT22;17763;48.730;9.136;2023-03-19T05:06:39;9.80;99.90
31113;DHT22;17763;48.730;9.136;2023-03-19T05:09:05;9.80;99.90
31113;DHT22;17763;48.730;9.136;2023-03-19T05:11:32;9.80;99.90
31113;DHT22;17763;48.730;9.136;2023-03-19T05:13:57;9.80;99.90
31113;DHT22;17763;48.730;9.136;2023-03-19T05:16:23;9.80;99.90
31113;DHT22;17763;48.730;9.136;2023-03-19T05:18:49;9.80;99.90
31113;DHT22;17763;48.730;9.136;2023-03-19T05:21:17;9.80;99.90
31113;DHT22;17763;48.730;9.136;2023-03-19T05:23:43;9.70;99.90
31113;DHT22;17763;48.730;9.136;2023-03-19T05:26:09;9.70;99.90
31113;DHT22;17763;48.730;9.136;2023-03-19T05:28:36;9.80;99.90
31113;DHT22;17763;48.730;9.136;2023-03-19T05:31:05;9.80;99.90
31113;DHT22;17763;48.730;9.136;2023-03-19T05:33:33;9.80;99.90
31113;DHT22;17763;48.730;9.136;2023-03-19T05:35:59;9.80;99.90
31113;DHT22;17763;48.730;9.136;2023-03-19T05:38:25;9.70;99.90
31113;DHT22;17763;48.730;9.136;2023-03-19T05:40:51;9.70;99.90
31113;DHT22;17763;48.730;9.136;2023-03-19T05:43:16;9.60;99.90
31113;DHT22;17763;48.730;9.136;2023-03-19T05:45:42;9.70;99.90
31113;DHT22;17763;48.730;9.136;2023-03-19T05:48:08;9.60;99.90
31113;DHT22;17763;48.730;9.136;2023-03-19T05:50:34;9.60;99.90
31113;DHT22;17763;48.730;9.136;2023-03-19T05:53:00;9.70;99.90
31113;DHT22;17763;48.730;9.136;2023-03-19T05:55:26;9.70;99.90
31113;DHT22;17763;48.730;9.136;2023-03-19T05:57:51;9.70;99.90
31113;DHT22;17763;48.730;9.136;2023-03-19T06:00:18;9.70;99.90
31113;DHT22;17763;48.730;9.136;2023-03-19T06:02:44;9.70;99.90
31113;DHT22;17763;48.730;9.136;2023-03-19T06:05:12;9.70;99.90
31113;DHT22;17763;48.730;9.136;2023-03-19T06:07:37;9.70;99.90
31113;DHT22;17763;48.730;9.136;2023-03-19T06:10:04;9.70;99.90
31113;DHT22;17763;48.730;9.136;2023-03-19T06:12:30;9.70;99.90
31113;DHT22;17763;48.730;9.136;2023-03-19T06:14:58;9.70;99.90
31113;DHT22;17763;48.730;9.136;2023-03-19T06:17:27;9.70;99.90
31113;DHT22;17763;48.730;9.136;2023-03-19T06:19:52;9.70;99.90
31113;DHT22;17763;48.730;9.136;2023-03-19T06:22:18;9.70;99.90
31113;DHT22;17763;48.730;9.136;2023-03-19T06:24:44;9.70;99.90
31113;DHT22;17763;48.730;9.136;2023-03-19T06:27:12;9.60;99.90
31113;DHT22;17763;48.730;9.136;2023-03-19T06:29:38;9.60;99.90
31113;DHT22;17763;48.730;9.136;2023-03-19T06:32:03;9.60;99.90
31113;DHT22;17763;48.730;9.136;2023-03-19T06:34:29;9.70;99.90
31113;DHT22;17763;48.730;9.136;2023-03-19T06:36:55;9.60;99.90
31113;DHT22;17763;48.730;9.136;2023-03-19T06:39:21;9.70;99.90
31113;DHT22;17763;48.730;9.136;2023-03-19T06:41:47;9.70;99.90
31113;DHT22;17763;48.730;9.136;2023-03-19T06:44:12;9.70;99.90
31113;DHT22;17763;48.730;9.136;2023-03-19T06:46:38;9.80;99.90
31113;DHT22;17763;48.730;9.136;2023-03-19T06:49:03;9.80;99.90
31113;DHT22;17763;48.730;9.136;2023-03-19T06:51:29;9.80;99.90
31113;DHT22;17763;48.730;9.136;2023-03-19T06:53:55;9.80;99.90
31113;DHT22;17763;48.730;9.136;2023-03-19T06:56:21;9.80;99.90
31113;DHT22;17763;48.730;9.136;2023-03-19T06:58:46;9.70;99.90
31113;DHT22;17763;48.730;9.136;2023-03-19T07:01:12;9.80;99.90
31113;DHT22;17763;48.730;9.136;2023-03-19T07:03:39;9.70;99.90
31113;DHT22;17763;48.730;9.136;2023-03-19T07:06:05;9.70;99.90
31113;DHT22;17763;48.730;9.136;2023-03-19T07:08:31;9.70;99.90
31113;DHT22;17763;48.730;9.136;2023-03-19T07:11:03;9.70;99.90
31113;DHT22;17763;48.730;9.136;2023-03-19T07:13:29;9.80;99.90
31113;DHT22;17763;48.730;9.136;2023-03-19T07:15:57;9.80;99.90
31113;DHT22;17763;48.730;9.136;2023-03-19T07:18:23;9.70;99.90
31113;DHT22;17763;48.730;9.136;2023-03-19T07:20:51;9.70;99.90
31113;DHT22;17763;48.730;9.136;2023-03-19T07:23:20;9.70;99.90
31113;DHT22;17763;48.730;9.136;2023-03-19T07:25:46;9.80;99.90
31113;DHT22;17763;48.730;9.136;2023-03-19T07:28:12;9.70;99.90
31113;DHT22;17763;48.730;9.136;2023-03-19T07:30:38;9.80;99.90
31113;DHT22;17763;48.730;9.136;2023-03-19T07:33:05;9.80;99.90
31113;DHT22;17763;48.730;9.136;2023-03-19T07:35:32;9.90;99.90
31113;DHT22;17763;48.730;9.136;2023-03-19T07:37:58;9.90;99.90
31113;DHT22;17763;48.730;9.136;2023-03-19T07:40:25;10.00;99.90
31113;DHT22;17763;48.730;9.136;2023-03-19T07:42:51;10.00;99.90
31113;DHT22;17763;48.730;9.136;2023-03-19T07:45:19;10.00;99.90
31113;DHT22;17763;48.730;9.136;2023-03-19T07:47:44;10.00;99.90
31113;DHT22;17763;48.730;9.136;2023-03-19T07:50:11;10.10;99.90
31113;DHT22;17763;48.730;9.136;2023-03-19T07:52:37;10.10;99.90
31113;DHT22;17763;48.730;9.136;2023-03-19T07:55:03;10.10;99.90
31113;DHT22;17763;48.730;9.136;2023-03-19T07:57:29;10.20;99.90
31113;DHT22;17763;48.730;9.136;2023-03-19T07:59:54;10.20;99.90
31113;DHT22;17763;48.730;9.136;2023-03-19T08:02:20;10.20;99.90
31113;DHT22;17763;48.730;9.136;2023-03-19T08:04:46;10.30;99.90
31113;DHT22;17763;48.730;9.136;2023-03-19T08:07:12;10.30;99.90
31113;DHT22;17763;48.730;9.136;2023-03-19T08:09:39;10.30;99.90
31113;DHT22;17763;48.730;9.136;2023-03-19T08:12:05;10.40;99.90
31113;DHT22;17763;48.730;9.136;2023-03-19T08:14:32;10.50;99.90
31113;DHT22;17763;48.730;9.136;2023-03-19T08:17:00;10.50;99.90
31113;DHT22;17763;48.730;9.136;2023-03-19T08:19:26;10.60;99.90
31113;DHT22;17763;48.730;9.136;2023-03-19T08:21:51;10.60;99.90
31113;DHT22;17763;48.730;9.136;2023-03-19T08:24:20;10.60;99.90
31113;DHT22;17763;48.730;9.136;2023-03-19T08:26:45;10.70;99.90
31113;DHT22;17763;48.730;9.136;2023-03-19T08:29:11;10.80;99.90
31113;DHT22;17763;48.730;9.136;2023-03-19T08:31:37;10.80;99.90
31113;DHT22;17763;48.730;9.136;2023-03-19T08:34:07;10.90;99.90
31113;DHT22;17763;48.730;9.136;2023-03-19T08:36:35;10.90;99.90
31113;DHT22;17763;48.730;9.136;2023-03-19T08:39:00;11.00;99.90
31113;DHT22;17763;48.730;9.136;2023-03-19T08:41:26;11.10;99.90
31113;DHT22;17763;48.730;9.136;2023-03-19T08:43:52;11.20;99.90
31113;DHT22;17763;48.730;9.136;2023-03-19T08:46:20;11.30;99.90
31113;DHT22;17763;48.730;9.136;2023-03-19T08:48:45;11.40;99.90
31113;DHT22;17763;48.730;9.136;2023-03-19T08:51:11;11.50;99.90
31113;DHT22;17763;48.730;9.136;2023-03-19T08:53:37;11.70;99.90
31113;DHT22;17763;48.730;9.136;2023-03-19T08:56:05;11.80;99.90
31113;DHT22;17763;48.730;9.136;2023-03-19T08:58:32;11.70;99.90
31113;DHT22;17763;48.730;9.136;2023-03-19T09:01:06;11.80;99.90
31113;DHT22;17763;48.730;9.136;2023-03-19T09:03:33;11.90;99.90
31113;DHT22;17763;48.730;9.136;2023-03-19T09:06:00;12.00;99.90
31113;DHT22;17763;48.730;9.136;2023-03-19T09:08:29;12.00;99.90
31113;DHT22;17763;48.730;9.136;2023-03-19T09:10:55;12.10;99.90
31113;DHT22;17763;48.730;9.136;2023-03-19T09:13:21;12.20;99.90
31113;DHT22;17763;48.730;9.136;2023-03-19T09:15:47;12.20;99.90
31113;DHT22;17763;48.730;9.136;2023-03-19T09:18:12;12.30;99.90
31113;DHT22;17763;48.730;9.136;2023-03-19T09:20:38;12.40;99.90
31113;DHT22;17763;48.730;9.136;2023-03-19T09:23:04;12.50;99.90
31113;DHT22;17763;48.730;9.136;2023-03-19T09:25:30;12.60;99.90
31113;DHT22;17763;48.730;9.136;2023-03-19T09:27:55;12.60;99.90
31113;DHT22;17763;48.730;9.136;2023-03-19T09:30:21;12.80;99.90
31113;DHT22;17763;48.730;9.136;2023-03-19T09:32:46;12.80;99.90
31113;DHT22;17763;48.730;9.136;2023-03-19T09:35:12;12.90;99.90
31113;DHT22;17763;48.730;9.136;2023-03-19T09:37:38;13.00;99.90
31113;DHT22;17763;48.730;9.136;2023-03-19T09:40:04;13.00;99.90
31113;DHT22;17763;48.730;9.136;2023-03-19T09:45:26;12.90;99.90
31113;DHT22;17763;48.730;9.136;2023-03-19T09:47:57;13.00;99.90
31113;DHT22;17763;48.730;9.136;2023-03-19T09:50:26;13.10;99.90
31113;DHT22;17763;48.730;9.136;2023-03-19T09:55:47;13.30;99.90
31113;DHT22;17763;48.730;9.136;2023-03-19T09:58:20;13.40;99.90
31113;DHT22;17763;48.730;9.136;2023-03-19T10:00:49;13.50;99.90
31113;DHT22;17763;48.730;9.136;2023-03-19T10:06:36;13.80;99.30
31113;DHT22;17763;48.730;9.136;2023-03-19T10:09:20;13.90;98.30
31113;DHT22;17763;48.730;9.136;2023-03-19T10:12:15;14.00;98.90
31113;DHT22;17763;48.730;9.136;2023-03-19T10:17:21;13.90;98.10
31113;DHT22;17763;48.730;9.136;2023-03-19T10:20:11;13.80;98.10
31113;DHT22;17763;48.730;9.136;2023-03-19T10:22:46;13.90;98.10
31113;DHT22;17763;48.730;9.136;2023-03-19T10:25:19;13.90;96.50
31113;DHT22;17763;48.730;9.136;2023-03-19T10:27:49;14.00;96.70
31113;DHT22;17763;48.730;9.136;2023-03-19T10:30:19;13.90;95.20
31113;DHT22;17763;48.730;9.136;2023-03-19T10:33:15;14.00;94.70
31113;DHT22;17763;48.730;9.136;2023-03-19T10:35:48;14.00;94.60
31113;DHT22;17763;48.730;9.136;2023-03-19T10:38:20;14.10;94.00
31113;DHT22;17763;48.730;9.136;2023-03-19T10:43:55;14.20;92.40
31113;DHT22;17763;48.730;9.136;2023-03-19T10:46:23;14.20;92.30
31113;DHT22;17763;48.730;9.136;2023-03-19T10:48:48;14.20;91.50
31113;DHT22;17763;48.730;9.136;2023-03-19T10:51:25;14.30;90.60
31113;DHT22;17763;48.730;9.136;2023-03-19T10:53:54;14.40;90.50
31113;DHT22;17763;48.730;9.136;2023-03-19T10:56:26;14.40;89.90
31113;DHT22;17763;48.730;9.136;2023-03-19T10:58:58;14.50;90.60
31113;DHT22;17763;48.730;9.136;2023-03-19T11:01:36;14.50;89.50
31113;DHT22;17763;48.730;9.136;2023-03-19T11:04:12;14.60;88.30
31113;DHT22;17763;48.730;9.136;2023-03-19T11:06:39;14.70;86.80
31113;DHT22;17763;48.730;9.136;2023-03-19T11:14:37;14.60;88.50
31113;DHT22;17763;48.730;9.136;2023-03-19T11:19:58;14.80;88.50
31113;DHT22;17763;48.730;9.136;2023-03-19T11:22:30;14.90;87.60
31113;DHT22;17763;48.730;9.136;2023-03-19T11:25:46;15.00;86.40
31113;DHT22;17763;48.730;9.136;2023-03-19T11:28:16;15.10;86.20
31113;DHT22;17763;48.730;9.136;2023-03-19T11:36:17;15.20;79.90
31113;DHT22;17763;48.730;9.136;2023-03-19T11:53:34;15.20;79.70
31113;DHT22;17763;48.730;9.136;2023-03-19T11:59:35;15.20;77.10
31113;DHT22;17763;48.730;9.136;2023-03-19T12:04:37;15.10;77.20
31113;DHT22;17763;48.730;9.136;2023-03-19T12:18:13;15.30;76.20
31113;DHT22;17763;48.730;9.136;2023-03-19T12:20:26;15.20;77.40
31113;DHT22;17763;48.730;9.136;2023-03-19T12:28:32;15.50;78.90
31113;DHT22;17763;48.730;9.136;2023-03-19T12:34:15;15.70;77.40
31113;DHT22;17763;48.730;9.136;2023-03-19T12:37:04;15.80;77.30
31113;DHT22;17763;48.730;9.136;2023-03-19T12:39:35;15.70;75.20
31113;DHT22;17763;48.730;9.136;2023-03-19T12:42:03;15.60;76.50
31113;DHT22;17763;48.730;9.136;2023-03-19T12:44:37;15.70;79.30
31113;DHT22;17763;48.730;9.136;2023-03-19T12:47:12;15.70;78.20
31113;DHT22;17763;48.730;9.136;2023-03-19T12:52:36;15.60;75.70
31113;DHT22;17763;48.730;9.136;2023-03-19T12:55:48;15.60;75.60
31113;DHT22;17763;48.730;9.136;2023-03-19T12:58:05;15.60;77.20
31113;DHT22;17763;48.730;9.136;2023-03-19T13:01:11;15.40;77.10
31113;DHT22;17763;48.730;9.136;2023-03-19T13:09:04;15.10;77.90
31113;DHT22;17763;48.730;9.136;2023-03-19T13:11:59;14.90;80.20
31113;DHT22;17763;48.730;9.136;2023-03-19T13:14:31;14.60;85.60
31113;DHT22;17763;48.730;9.136;2023-03-19T13:20:23;14.20;86.20
31113;DHT22;17763;48.730;9.136;2023-03-19T13:23:00;14.00;85.40
31113;DHT22;17763;48.730;9.136;2023-03-19T13:25:33;14.00;86.20
31113;DHT22;17763;48.730;9.136;2023-03-19T13:28:08;14.00;86.60
31113;DHT22;17763;48.730;9.136;2023-03-19T13:30:35;14.00;87.40
31113;DHT22;17763;48.730;9.136;2023-03-19T13:33:16;14.10;88.20
31113;DHT22;17763;48.730;9.136;2023-03-19T13:35:48;14.20;86.80
31113;DHT22;17763;48.730;9.136;2023-03-19T13:38:27;14.20;88.40
31113;DHT22;17763;48.730;9.136;2023-03-19T13:40:58;14.20;88.50
31113;DHT22;17763;48.730;9.136;2023-03-19T13:59:33;14.00;91.80
31113;DHT22;17763;48.730;9.136;2023-03-19T14:02:02;14.00;91.20
31113;DHT22;17763;48.730;9.136;2023-03-19T14:04:34;14.00;90.70
31113;DHT22;17763;48.730;9.136;2023-03-19T14:07:22;14.10;90.80
31113;DHT22;17763;48.730;9.136;2023-03-19T14:15:00;14.10;89.50
31113;DHT22;17763;48.730;9.136;2023-03-19T14:25:50;14.20;88.40
31113;DHT22;17763;48.730;9.136;2023-03-19T14:28:16;14.20;88.60
31113;DHT22;17763;48.730;9.136;2023-03-19T14:30:46;14.10;90.20
31113;DHT22;17763;48.730;9.136;2023-03-19T14:33:22;14.20;90.10
31113;DHT22;17763;48.730;9.136;2023-03-19T14:35:51;14.10;90.00
31113;DHT22;17763;48.730;9.136;2023-03-19T14:38:59;14.10;90.30
31113;DHT22;17763;48.730;9.136;2023-03-19T14:41:30;14.10;90.20
31113;DHT22;17763;48.730;9.136;2023-03-19T14:44:22;13.90;90.70
31113;DHT22;17763;48.730;9.136;2023-03-19T14:53:24;13.70;92.70
31113;DHT22;17763;48.730;9.136;2023-03-19T14:55:32;13.70;93.20
31113;DHT22;17763;48.730;9.136;2023-03-19T14:58:03;13.70;93.20
31113;DHT22;17763;48.730;9.136;2023-03-19T15:00:40;13.60;92.50
31113;DHT22;17763;48.730;9.136;2023-03-19T15:03:18;13.50;92.70
31113;DHT22;17763;48.730;9.136;2023-03-19T15:05:45;13.40;93.20
31113;DHT22;17763;48.730;9.136;2023-03-19T15:08:18;13.40;93.40
31113;DHT22;17763;48.730;9.136;2023-03-19T15:10:53;13.20;94.30
31113;DHT22;17763;48.730;9.136;2023-03-19T15:13:36;13.20;95.60
31113;DHT22;17763;48.730;9.136;2023-03-19T15:19:10;13.10;96.90
31113;DHT22;17763;48.730;9.136;2023-03-19T15:21:37;13.10;97.30
31113;DHT22;17763;48.730;9.136;2023-03-19T15:24:03;13.10;97.00
31113;DHT22;17763;48.730;9.136;2023-03-19T15:26:31;13.00;97.70
31113;DHT22;17763;48.730;9.136;2023-03-19T15:28:57;13.00;98.50
31113;DHT22;17763;48.730;9.136;2023-03-19T15:31:43;13.10;99.60
31113;DHT22;17763;48.730;9.136;2023-03-19T15:34:20;13.00;99.50
31113;DHT22;17763;48.730;9.136;2023-03-19T15:36:49;13.00;99.90
31113;DHT22;17763;48.730;9.136;2023-03-19T15:39:18;12.90;99.90
31113;DHT22;17763;48.730;9.136;2023-03-19T15:41:46;12.90;99.80
31113;DHT22;17763;48.730;9.136;2023-03-19T15:44:38;12.80;98.60
31113;DHT22;17763;48.730;9.136;2023-03-19T15:47:02;12.70;98.90
31113;DHT22;17763;48.730;9.136;2023-03-19T15:49:38;12.60;99.20
31113;DHT22;17763;48.730;9.136;2023-03-19T15:52:10;12.60;99.70
31113;DHT22;17763;48.730;9.136;2023-03-19T15:54:40;12.50;99.90
31113;DHT22;17763;48.730;9.136;2023-03-19T15:57:07;12.40;99.90
31113;DHT22;17763;48.730;9.136;2023-03-19T15:59:34;12.30;99.90
31113;DHT22;17763;48.730;9.136;2023-03-19T16:02:02;12.20;99.90
31113;DHT22;17763;48.730;9.136;2023-03-19T16:04:30;12.10;99.90
31113;DHT22;17763;48.730;9.136;2023-03-19T16:07:00;12.10;99.90
31113;DHT22;17763;48.730;9.136;2023-03-19T16:09:32;12.00;99.90
31113;DHT22;17763;48.730;9.136;2023-03-19T16:11:59;11.90;99.90
31113;DHT22;17763;48.730;9.136;2023-03-19T16:14:36;11.80;99.90
31113;DHT22;17763;48.730;9.136;2023-03-19T16:17:16;11.70;99.90
31113;DHT22;17763;48.730;9.136;2023-03-19T16:19:53;11.60;99.90
31113;DHT22;17763;48.730;9.136;2023-03-19T16:22:27;11.50;99.90
31113;DHT22;17763;48.730;9.136;2023-03-19T16:24:54;11.40;99.90
31113;DHT22;17763;48.730;9.136;2023-03-19T16:27:49;11.30;99.90
31113;DHT22;17763;48.730;9.136;2023-03-19T16:30:22;11.00;99.90
31113;DHT22;17763;48.730;9.136;2023-03-19T16:33:02;10.90;99.90
31113;DHT22;17763;48.730;9.136;2023-03-19T16:35:30;10.70;99.90
31113;DHT22;17763;48.730;9.136;2023-03-19T16:38:13;10.60;99.90
31113;DHT22;17763;48.730;9.136;2023-03-19T16:40:45;10.50;99.90
31113;DHT22;17763;48.730;9.136;2023-03-19T16:43:19;10.30;99.90
31113;DHT22;17763;48.730;9.136;2023-03-19T16:46:02;10.30;99.90
31113;DHT22;17763;48.730;9.136;2023-03-19T16:48:28;10.30;99.90
31113;DHT22;17763;48.730;9.136;2023-03-19T16:50:53;10.30;99.90
31113;DHT22;17763;48.730;9.136;2023-03-19T16:53:21;10.30;99.90
31113;DHT22;17763;48.730;9.136;2023-03-19T16:55:47;10.30;99.90
31113;DHT22;17763;48.730;9.136;2023-03-19T16:58:17;10.40;99.90
31113;DHT22;17763;48.730;9.136;2023-03-19T17:00:43;10.40;99.90
31113;DHT22;17763;48.730;9.136;2023-03-19T17:03:15;10.40;99.90
31113;DHT22;17763;48.730;9.136;2023-03-19T17:05:41;10.40;99.90
31113;DHT22;17763;48.730;9.136;2023-03-19T17:08:07;10.30;99.90
31113;DHT22;17763;48.730;9.136;2023-03-19T17:10:35;10.30;99.90
31113;DHT22;17763;48.730;9.136;2023-03-19T17:13:01;10.20;99.90
31113;DHT22;17763;48.730;9.136;2023-03-19T17:15:38;10.20;99.90
31113;DHT22;17763;48.730;9.136;2023-03-19T17:18:16;10.10;99.90
31113;DHT22;17763;48.730;9.136;2023-03-19T17:20:52;10.10;99.90
31113;DHT22;17763;48.730;9.136;2023-03-19T17:23:19;10.10;99.90
31113;DHT22;17763;48.730;9.136;2023-03-19T17:25:53;10.10;99.90
31113;DHT22;17763;48.730;9.136;2023-03-19T17:28:21;10.00;99.90
31113;DHT22;17763;48.730;9.136;2023-03-19T17:30:47;10.10;99.90
31113;DHT22;17763;48.730;9.136;2023-03-19T17:35:49;10.20;99.90
31113;DHT22;17763;48.730;9.136;2023-03-19T17:38:16;10.10;99.90
31113;DHT22;17763;48.730;9.136;2023-03-19T17:40:43;10.10;99.90
31113;DHT22;17763;48.730;9.136;2023-03-19T17:43:11;10.10;99.90
31113;DHT22;17763;48.730;9.136;2023-03-19T17:45:38;10.00;99.90
31113;DHT22;17763;48.730;9.136;2023-03-19T17:48:19;10.00;99.90
31113;DHT22;17763;48.730;9.136;2023-03-19T17:50:46;10.00;99.90
31113;DHT22;17763;48.730;9.136;2023-03-19T17:53:12;9.90;99.90
31113;DHT22;17763;48.730;9.136;2023-03-19T17:55:39;9.90;99.90
31113;DHT22;17763;48.730;9.136;2023-03-19T17:58:07;9.90;99.90